createdAt,value
2016-12-23T00:00:07.745Z,1025.89
2016-12-23T00:01:17.384Z,1025.82
2016-12-23T00:02:27.653Z,1025.78
2016-12-23T00:03:37.922Z,1025.77
2016-12-23T00:04:48.197Z,1025.82
2016-12-23T00:05:58.459Z,1025.85
2016-12-23T00:07:08.728Z,1025.86
2016-12-23T00:08:19.001Z,1025.91
2016-12-23T00:09:29.301Z,1025.82
2016-12-23T00:10:39.560Z,1025.84
2016-12-23T00:11:49.829Z,1025.84
2016-12-23T00:13:00.091Z,1025.87
2016-12-23T00:14:10.364Z,1025.87
2016-12-23T00:15:20.657Z,1025.86
2016-12-23T00:16:30.927Z,1025.81
2016-12-23T00:17:41.189Z,1025.84
2016-12-23T00:18:51.458Z,1025.8
2016-12-23T00:20:01.758Z,1025.82
2016-12-23T00:21:12.050Z,1025.86
2016-12-23T00:22:22.009Z,1025.9
2016-12-23T00:23:32.380Z,1025.87
2016-12-23T00:24:42.338Z,1025.86
2016-12-23T00:25:52.642Z,1025.83
2016-12-23T00:27:02.911Z,1025.77
2016-12-23T00:28:12.889Z,1025.82
2016-12-23T00:29:23.170Z,1025.83
2016-12-23T00:30:33.446Z,1025.83
2016-12-23T00:31:43.762Z,1025.86
2016-12-23T00:32:54.047Z,1025.87
2016-12-23T00:34:04.357Z,1025.89
2016-12-23T00:35:14.626Z,1025.87
2016-12-23T00:36:24.898Z,1025.92
2016-12-23T00:37:35.228Z,1025.91
2016-12-23T00:38:45.209Z,1025.88
2016-12-23T00:39:55.487Z,1025.89
2016-12-23T00:41:05.769Z,1025.87
2016-12-23T00:42:15.416Z,1025.86
2016-12-23T00:43:25.698Z,1025.87
2016-12-23T00:44:35.986Z,1025.88
2016-12-23T00:45:46.261Z,1025.94
2016-12-23T00:46:56.534Z,1025.96
2016-12-23T00:48:06.837Z,1025.97
2016-12-23T00:49:17.106Z,1026.01
2016-12-23T00:50:27.375Z,1025.97
2016-12-23T00:51:37.673Z,1025.99
2016-12-23T00:52:47.945Z,1025.98
2016-12-23T00:53:58.201Z,1025.97
2016-12-23T00:55:08.476Z,1026.01
2016-12-23T00:56:18.444Z,1026.01
2016-12-23T00:57:28.402Z,1026.05
2016-12-23T00:58:38.673Z,1026.05
2016-12-23T00:59:48.940Z,1025.99
2016-12-23T01:00:59.248Z,1026.02
2016-12-23T01:02:09.523Z,1025.98
2016-12-23T01:03:19.801Z,1026.02
2016-12-23T01:04:30.057Z,1026.03
2016-12-23T01:05:40.319Z,1026.1
2016-12-23T01:06:50.602Z,1026.13
2016-12-23T01:08:00.863Z,1026.08
2016-12-23T01:09:11.132Z,1026.06
2016-12-23T01:10:21.403Z,1025.95
2016-12-23T01:11:31.678Z,1025.99
2016-12-23T01:12:41.965Z,1026.04
2016-12-23T01:13:52.230Z,1026.08
2016-12-23T01:15:02.492Z,1026.12
2016-12-23T01:16:13.308Z,1026.11
2016-12-23T01:17:23.589Z,1026.12
2016-12-23T01:18:33.852Z,1026.12
2016-12-23T01:19:44.111Z,1026.18
2016-12-23T01:20:54.380Z,1026.19
2016-12-23T01:22:04.332Z,1026.21
2016-12-23T01:23:13.970Z,1026.25
2016-12-23T01:24:24.230Z,1026.29
2016-12-23T01:25:34.178Z,1026.3
2016-12-23T01:26:44.498Z,1026.36
2016-12-23T01:27:54.761Z,1026.38
2016-12-23T01:29:05.062Z,1026.41
2016-12-23T01:30:15.324Z,1026.42
2016-12-23T01:31:25.289Z,1026.43
2016-12-23T01:32:35.561Z,1026.42
2016-12-23T01:33:45.519Z,1026.47
2016-12-23T01:34:55.465Z,1026.54
2016-12-23T01:36:05.733Z,1026.56
2016-12-23T01:37:16.022Z,1026.63
2016-12-23T01:38:26.291Z,1026.65
2016-12-23T01:39:36.252Z,1026.64
2016-12-23T01:40:46.210Z,1026.64
2016-12-23T01:41:56.477Z,1026.62
2016-12-23T01:43:06.758Z,1026.62
2016-12-23T01:44:17.023Z,1026.6
2016-12-23T01:45:27.327Z,1026.58
2016-12-23T01:46:37.587Z,1026.6
2016-12-23T01:47:47.848Z,1026.55
2016-12-23T01:48:58.104Z,1026.57
2016-12-23T01:50:08.374Z,1026.61
2016-12-23T01:51:18.639Z,1026.65
2016-12-23T01:52:28.901Z,1026.64
2016-12-23T01:53:39.151Z,1026.72
2016-12-23T01:54:49.413Z,1026.75
2016-12-23T01:55:59.672Z,1026.81
2016-12-23T01:57:09.631Z,1026.85
2016-12-23T01:58:19.879Z,1026.87
2016-12-23T01:59:30.151Z,1026.86
2016-12-23T02:00:40.411Z,1026.88
2016-12-23T02:01:50.660Z,1026.88
2016-12-23T02:03:00.936Z,1026.87
2016-12-23T02:04:11.198Z,1026.9
2016-12-23T02:05:21.141Z,1026.92
2016-12-23T02:06:31.086Z,1026.93
2016-12-23T02:07:41.376Z,1026.91
2016-12-23T02:08:51.640Z,1026.83
2016-12-23T02:10:01.896Z,1026.83
2016-12-23T02:11:12.178Z,1026.86
2016-12-23T02:12:22.485Z,1026.85
2016-12-23T02:13:32.779Z,1026.79
2016-12-23T02:14:42.731Z,1026.79
2016-12-23T02:15:52.682Z,1026.79
2016-12-23T02:17:02.955Z,1026.77
2016-12-23T02:18:12.919Z,1026.72
2016-12-23T02:19:23.175Z,1026.68
2016-12-23T02:20:33.543Z,1026.69
2016-12-23T02:21:43.501Z,1026.67
2016-12-23T02:22:53.766Z,1026.63
2016-12-23T02:24:04.023Z,1026.59
2016-12-23T02:25:14.282Z,1026.61
2016-12-23T02:26:24.538Z,1026.67
2016-12-23T02:27:34.836Z,1026.68
2016-12-23T02:28:45.124Z,1026.74
2016-12-23T02:29:55.393Z,1026.79
2016-12-23T02:31:05.664Z,1026.79
2016-12-23T02:32:15.933Z,1026.81
2016-12-23T02:33:26.189Z,1026.8
2016-12-23T02:34:36.461Z,1026.78
2016-12-23T02:35:46.407Z,1026.78
2016-12-23T02:36:56.660Z,1026.79
2016-12-23T02:38:06.947Z,1026.81
2016-12-23T02:39:17.257Z,1026.85
2016-12-23T02:40:27.521Z,1026.84
2016-12-23T02:41:37.475Z,1026.79
2016-12-23T02:42:47.420Z,1026.76
2016-12-23T02:43:57.676Z,1026.73
2016-12-23T02:45:07.923Z,1026.68
2016-12-23T02:46:17.891Z,1026.7
2016-12-23T02:47:27.837Z,1026.65
2016-12-23T02:48:38.106Z,1026.72
2016-12-23T02:49:48.358Z,1026.73
2016-12-23T02:50:58.617Z,1026.78
2016-12-23T02:52:08.876Z,1026.82
2016-12-23T02:53:19.142Z,1026.86
2016-12-23T02:54:29.400Z,1026.8
2016-12-23T02:55:39.661Z,1026.8
2016-12-23T02:56:49.609Z,1026.74
2016-12-23T02:57:59.555Z,1026.7
2016-12-23T02:59:09.526Z,1026.7
2016-12-23T03:00:19.793Z,1026.73
2016-12-23T03:01:29.792Z,1026.71
2016-12-23T03:02:40.047Z,1026.65
2016-12-23T03:03:50.323Z,1026.7
2016-12-23T03:05:00.281Z,1026.69
2016-12-23T03:06:10.549Z,1026.69
2016-12-23T03:07:20.807Z,1026.69
2016-12-23T03:08:30.745Z,1026.69
2016-12-23T03:09:41.071Z,1026.66
2016-12-23T03:10:51.337Z,1026.67
2016-12-23T03:12:01.609Z,1026.62
2016-12-23T03:13:11.568Z,1026.63
2016-12-23T03:14:21.836Z,1026.63
2016-12-23T03:15:31.788Z,1026.64
2016-12-23T03:16:42.060Z,1026.63
2016-12-23T03:17:52.313Z,1026.69
2016-12-23T03:19:02.588Z,1026.74
2016-12-23T03:20:12.864Z,1026.77
2016-12-23T03:21:22.812Z,1026.81
2016-12-23T03:22:33.081Z,1026.82
2016-12-23T03:23:43.064Z,1026.79
2016-12-23T03:24:53.330Z,1026.83
2016-12-23T03:26:03.586Z,1026.85
2016-12-23T03:27:13.548Z,1026.83
2016-12-23T03:28:23.820Z,1026.79
2016-12-23T03:29:34.082Z,1026.79
2016-12-23T03:30:44.326Z,1026.76
2016-12-23T03:31:54.588Z,1026.77
2016-12-23T03:33:04.847Z,1026.71
2016-12-23T03:34:15.104Z,1026.69
2016-12-23T03:35:25.360Z,1026.65
2016-12-23T03:36:35.664Z,1026.66
2016-12-23T03:37:45.968Z,1026.63
2016-12-23T03:38:56.234Z,1026.65
2016-12-23T03:40:06.493Z,1026.66
2016-12-23T03:41:16.758Z,1026.69
2016-12-23T03:42:26.711Z,1026.7
2016-12-23T03:43:36.662Z,1026.71
2016-12-23T03:44:46.618Z,1026.7
2016-12-23T03:45:56.879Z,1026.73
2016-12-23T03:47:07.143Z,1026.71
2016-12-23T03:48:17.097Z,1026.72
2016-12-23T03:49:27.375Z,1026.71
2016-12-23T03:50:37.318Z,1026.7
2016-12-23T03:51:47.581Z,1026.67
2016-12-23T03:52:57.852Z,1026.69
2016-12-23T03:54:08.111Z,1026.71
2016-12-23T03:55:18.371Z,1026.63
2016-12-23T03:56:28.637Z,1026.65
2016-12-23T03:57:38.893Z,1026.6
2016-12-23T03:58:48.967Z,1026.6
2016-12-23T03:59:59.222Z,1026.53
2016-12-23T04:01:09.196Z,1026.5
2016-12-23T04:02:19.206Z,1026.56
2016-12-23T04:03:29.455Z,1026.51
2016-12-23T04:04:39.100Z,1026.54
2016-12-23T04:05:49.375Z,1026.5
2016-12-23T04:06:59.625Z,1026.52
2016-12-23T04:08:09.896Z,1026.52
2016-12-23T04:09:19.847Z,1026.56
2016-12-23T04:10:29.791Z,1026.59
2016-12-23T04:11:40.063Z,1026.58
2016-12-23T04:12:50.317Z,1026.56
2016-12-23T04:14:00.265Z,1026.56
2016-12-23T04:15:10.519Z,1026.59
2016-12-23T04:16:20.812Z,1026.57
2016-12-23T04:17:31.104Z,1026.57
2016-12-23T04:18:41.366Z,1026.59
2016-12-23T04:19:51.311Z,1026.57
2016-12-23T04:21:01.561Z,1026.64
2016-12-23T04:22:11.814Z,1026.59
2016-12-23T04:23:22.080Z,1026.62
2016-12-23T04:24:32.070Z,1026.63
2016-12-23T04:25:42.327Z,1026.65
2016-12-23T04:26:52.604Z,1026.68
2016-12-23T04:28:02.864Z,1026.66
2016-12-23T04:29:13.123Z,1026.58
2016-12-23T04:30:23.376Z,1026.56
2016-12-23T04:31:33.628Z,1026.49
2016-12-23T04:32:43.878Z,1026.44
2016-12-23T04:33:53.830Z,1026.44
2016-12-23T04:35:04.084Z,1026.5
2016-12-23T04:36:14.844Z,1026.57
2016-12-23T04:37:25.119Z,1026.58
2016-12-23T04:38:35.085Z,1026.66
2016-12-23T04:39:45.033Z,1026.66
2016-12-23T04:40:54.982Z,1026.6
2016-12-23T04:42:05.244Z,1026.67
2016-12-23T04:43:15.207Z,1026.67
2016-12-23T04:44:25.158Z,1026.64
2016-12-23T04:45:35.405Z,1026.72
2016-12-23T04:46:45.679Z,1026.73
2016-12-23T04:47:55.942Z,1026.73
2016-12-23T04:49:06.220Z,1026.66
2016-12-23T04:50:16.499Z,1026.64
2016-12-23T04:51:26.451Z,1026.66
2016-12-23T04:52:36.748Z,1026.65
2016-12-23T04:53:47.011Z,1026.68
2016-12-23T04:54:57.267Z,1026.67
2016-12-23T04:56:06.905Z,1026.74
2016-12-23T04:57:17.158Z,1026.76
2016-12-23T04:58:27.426Z,1026.81
2016-12-23T04:59:37.685Z,1026.84
2016-12-23T05:00:47.638Z,1026.89
2016-12-23T05:01:57.596Z,1026.88
2016-12-23T05:03:07.852Z,1026.89
2016-12-23T05:04:18.124Z,1026.83
2016-12-23T05:05:28.386Z,1026.73
2016-12-23T05:06:38.668Z,1026.7
2016-12-23T05:07:48.953Z,1026.67
2016-12-23T05:08:58.924Z,1026.68
2016-12-23T05:10:08.902Z,1026.71
2016-12-23T05:11:18.840Z,1026.62
2016-12-23T05:12:29.104Z,1026.66
2016-12-23T05:13:39.071Z,1026.71
2016-12-23T05:14:49.347Z,1026.77
2016-12-23T05:15:59.603Z,1026.74
2016-12-23T05:17:09.877Z,1026.73
2016-12-23T05:18:19.827Z,1026.77
2016-12-23T05:19:29.158Z,1026.77
2016-12-23T05:20:39.417Z,1026.71
2016-12-23T05:21:49.372Z,1026.73
2016-12-23T05:22:59.644Z,1026.72
2016-12-23T05:24:09.932Z,1026.73
2016-12-23T05:25:20.207Z,1026.79
2016-12-23T05:26:29.878Z,1026.84
2016-12-23T05:27:40.144Z,1026.81
2016-12-23T05:28:50.409Z,1026.82
2016-12-23T05:30:00.676Z,1026.85
2016-12-23T05:31:10.944Z,1026.86
2016-12-23T05:32:21.206Z,1026.82
2016-12-23T05:33:31.468Z,1026.84
2016-12-23T05:34:41.427Z,1026.76
2016-12-23T05:35:51.687Z,1026.8
2016-12-23T05:37:01.936Z,1026.81
2016-12-23T05:38:11.896Z,1026.8
2016-12-23T05:39:22.172Z,1026.87
2016-12-23T05:40:32.461Z,1026.83
2016-12-23T05:41:42.748Z,1026.83
2016-12-23T05:42:53.004Z,1026.86
2016-12-23T05:44:02.963Z,1026.81
2016-12-23T05:45:13.241Z,1026.83
2016-12-23T05:46:23.514Z,1026.81
2016-12-23T05:47:33.783Z,1026.83
2016-12-23T05:48:44.054Z,1026.89
2016-12-23T05:49:54.327Z,1026.87
2016-12-23T05:51:04.281Z,1026.89
2016-12-23T05:52:14.556Z,1026.83
2016-12-23T05:53:24.823Z,1026.85
2016-12-23T05:54:35.085Z,1026.83
2016-12-23T05:55:45.039Z,1026.79
2016-12-23T05:56:55.292Z,1026.74
2016-12-23T05:58:05.583Z,1026.68
2016-12-23T05:59:15.845Z,1026.73
2016-12-23T06:00:26.115Z,1026.76
2016-12-23T06:01:36.400Z,1026.7
2016-12-23T06:02:46.339Z,1026.72
2016-12-23T06:03:56.617Z,1026.68
2016-12-23T06:05:06.867Z,1026.69
2016-12-23T06:06:17.130Z,1026.7
2016-12-23T06:07:27.382Z,1026.7
2016-12-23T06:08:37.338Z,1026.69
2016-12-23T06:09:47.299Z,1026.72
2016-12-23T06:10:56.944Z,1026.77
2016-12-23T06:12:06.909Z,1026.7
2016-12-23T06:13:16.568Z,1026.76
2016-12-23T06:14:26.541Z,1026.74
2016-12-23T06:15:36.814Z,1026.77
2016-12-23T06:16:47.097Z,1026.79
2016-12-23T06:17:57.357Z,1026.8
2016-12-23T06:19:07.650Z,1026.79
2016-12-23T06:20:17.911Z,1026.83
2016-12-23T06:21:28.173Z,1026.9
2016-12-23T06:22:38.434Z,1026.87
2016-12-23T06:23:48.384Z,1026.87
2016-12-23T06:24:58.656Z,1026.86
2016-12-23T06:26:08.624Z,1026.9
2016-12-23T06:27:18.266Z,1026.85
2016-12-23T06:28:27.905Z,1026.9
2016-12-23T06:29:38.429Z,1026.88
2016-12-23T06:30:48.693Z,1026.9
2016-12-23T06:31:58.954Z,1026.93
2016-12-23T06:33:08.932Z,1026.95
2016-12-23T06:34:19.187Z,1026.9
2016-12-23T06:35:29.451Z,1026.92
2016-12-23T06:36:39.718Z,1026.95
2016-12-23T06:37:49.987Z,1026.94
2016-12-23T06:39:00.256Z,1026.94
2016-12-23T06:40:10.557Z,1026.97
2016-12-23T06:41:20.816Z,1027.02
2016-12-23T06:42:30.481Z,1026.99
2016-12-23T06:43:40.743Z,1027
2016-12-23T06:44:51.037Z,1027
2016-12-23T06:46:01.303Z,1027.05
2016-12-23T06:47:11.255Z,1027.1
2016-12-23T06:48:21.219Z,1027.13
2016-12-23T06:49:31.501Z,1027.14
2016-12-23T06:50:41.770Z,1027.17
2016-12-23T06:51:52.039Z,1027.15
2016-12-23T06:53:01.985Z,1027.2
2016-12-23T06:54:12.250Z,1027.2
2016-12-23T06:55:22.218Z,1027.2
2016-12-23T06:56:32.502Z,1027.25
2016-12-23T06:57:42.455Z,1027.26
2016-12-23T06:58:52.403Z,1027.2
2016-12-23T07:00:02.666Z,1027.24
2016-12-23T07:01:12.954Z,1027.2
2016-12-23T07:02:23.219Z,1027.21
2016-12-23T07:03:33.476Z,1027.21
2016-12-23T07:04:43.745Z,1027.22
2016-12-23T07:05:54.008Z,1027.21
2016-12-23T07:07:03.968Z,1027.2
2016-12-23T07:08:14.237Z,1027.22
2016-12-23T07:09:24.509Z,1027.26
2016-12-23T07:10:34.778Z,1027.28
2016-12-23T07:11:45.047Z,1027.34
2016-12-23T07:12:55.309Z,1027.3
2016-12-23T07:14:05.738Z,1027.38
2016-12-23T07:15:15.687Z,1027.39
2016-12-23T07:16:25.949Z,1027.37
2016-12-23T07:17:35.908Z,1027.42
2016-12-23T07:18:46.182Z,1027.42
2016-12-23T07:19:56.470Z,1027.44
2016-12-23T07:21:06.436Z,1027.43
2016-12-23T07:22:16.714Z,1027.39
2016-12-23T07:23:27.017Z,1027.44
2016-12-23T07:24:37.690Z,1027.5
2016-12-23T07:25:47.962Z,1027.46
2016-12-23T07:26:58.244Z,1027.44
2016-12-23T07:28:08.516Z,1027.49
2016-12-23T07:29:18.783Z,1027.48
2016-12-23T07:30:29.050Z,1027.48
2016-12-23T07:31:38.688Z,1027.49
2016-12-23T07:32:48.957Z,1027.45
2016-12-23T07:33:59.242Z,1027.5
2016-12-23T07:35:09.520Z,1027.52
2016-12-23T07:36:19.799Z,1027.55
2016-12-23T07:37:30.074Z,1027.56
2016-12-23T07:38:39.717Z,1027.54
2016-12-23T07:39:49.987Z,1027.54
2016-12-23T07:41:00.259Z,1027.62
2016-12-23T07:42:10.755Z,1027.63
2016-12-23T07:43:21.011Z,1027.65
2016-12-23T07:44:31.283Z,1027.68
2016-12-23T07:45:41.552Z,1027.73
2016-12-23T07:46:51.818Z,1027.79
2016-12-23T07:48:01.773Z,1027.84
2016-12-23T07:49:12.032Z,1027.88
2016-12-23T07:50:22.003Z,1027.92
2016-12-23T07:51:32.291Z,1027.92
2016-12-23T07:52:42.567Z,1028.01
2016-12-23T07:53:52.817Z,1028
2016-12-23T07:55:03.079Z,1028.07
2016-12-23T07:56:13.338Z,1028.11
2016-12-23T07:57:23.612Z,1028.12
2016-12-23T07:58:33.891Z,1028.08
2016-12-23T07:59:44.148Z,1028.08
2016-12-23T08:00:54.422Z,1028.09
2016-12-23T08:02:04.678Z,1028.11
2016-12-23T08:03:14.964Z,1028.16
2016-12-23T08:04:25.239Z,1028.17
2016-12-23T08:05:35.533Z,1028.24
2016-12-23T08:06:45.796Z,1028.21
2016-12-23T08:07:56.060Z,1028.21
2016-12-23T08:09:06.324Z,1028.22
2016-12-23T08:10:16.573Z,1028.25
2016-12-23T08:11:27.040Z,1028.27
2016-12-23T08:12:37.313Z,1028.3
2016-12-23T08:13:47.577Z,1028.28
2016-12-23T08:14:57.840Z,1028.27
2016-12-23T08:16:08.116Z,1028.27
2016-12-23T08:17:18.394Z,1028.3
2016-12-23T08:18:28.659Z,1028.36
2016-12-23T08:19:38.992Z,1028.33
2016-12-23T08:20:49.257Z,1028.33
2016-12-23T08:21:59.528Z,1028.36
2016-12-23T08:23:09.798Z,1028.35
2016-12-23T08:24:19.465Z,1028.36
2016-12-23T08:25:29.730Z,1028.36
2016-12-23T08:26:40.021Z,1028.37
2016-12-23T08:27:50.306Z,1028.4
2016-12-23T08:29:00.558Z,1028.39
2016-12-23T08:30:10.823Z,1028.41
2016-12-23T08:31:20.158Z,1028.42
2016-12-23T08:32:30.433Z,1028.4
2016-12-23T08:33:40.705Z,1028.44
2016-12-23T08:34:50.974Z,1028.48
2016-12-23T08:36:01.251Z,1028.48
2016-12-23T08:37:11.540Z,1028.53
2016-12-23T08:38:21.809Z,1028.53
2016-12-23T08:39:31.786Z,1028.56
2016-12-23T08:40:42.061Z,1028.55
2016-12-23T08:41:52.044Z,1028.59
2016-12-23T08:43:02.023Z,1028.59
2016-12-23T08:44:12.292Z,1028.6
2016-12-23T08:45:22.563Z,1028.56
2016-12-23T08:46:32.858Z,1028.63
2016-12-23T08:47:42.826Z,1028.65
2016-12-23T08:48:53.097Z,1028.69
2016-12-23T08:50:03.366Z,1028.69
2016-12-23T08:51:13.331Z,1028.72
2016-12-23T08:52:23.597Z,1028.68
2016-12-23T08:53:33.564Z,1028.71
2016-12-23T08:54:43.836Z,1028.72
2016-12-23T08:55:54.108Z,1028.74
2016-12-23T08:57:04.057Z,1028.78
2016-12-23T08:58:14.326Z,1028.77
2016-12-23T08:59:24.285Z,1028.77
2016-12-23T09:00:34.544Z,1028.76
2016-12-23T09:01:44.515Z,1028.77
2016-12-23T09:02:54.793Z,1028.76
2016-12-23T09:04:05.057Z,1028.8
2016-12-23T09:05:15.056Z,1028.77
2016-12-23T09:06:25.074Z,1028.79
2016-12-23T09:07:35.338Z,1028.76
2016-12-23T09:08:45.292Z,1028.8
2016-12-23T09:09:55.552Z,1028.79
2016-12-23T09:11:05.526Z,1028.83
2016-12-23T09:12:15.827Z,1028.87
2016-12-23T09:13:26.088Z,1028.87
2016-12-23T09:14:36.361Z,1028.85
2016-12-23T09:15:46.633Z,1028.82
2016-12-23T09:16:56.905Z,1028.84
2016-12-23T09:18:07.215Z,1028.8
2016-12-23T09:19:17.493Z,1028.79
2016-12-23T09:20:28.316Z,1028.73
2016-12-23T09:21:38.582Z,1028.7
2016-12-23T09:22:48.853Z,1028.71
2016-12-23T09:23:59.135Z,1028.8
2016-12-23T09:25:09.110Z,1028.79
2016-12-23T09:26:19.379Z,1028.81
2016-12-23T09:27:29.663Z,1028.83
2016-12-23T09:28:39.925Z,1028.84
2016-12-23T09:29:50.204Z,1028.86
2016-12-23T09:31:00.472Z,1028.87
2016-12-23T09:32:10.738Z,1028.9
2016-12-23T09:33:21.030Z,1028.82
2016-12-23T09:34:31.298Z,1028.84
2016-12-23T09:35:41.247Z,1028.82
2016-12-23T09:36:51.609Z,1028.87
2016-12-23T09:38:01.558Z,1028.88
2016-12-23T09:39:11.874Z,1028.83
2016-12-23T09:40:22.147Z,1028.84
2016-12-23T09:41:32.421Z,1028.85
2016-12-23T09:42:42.678Z,1028.87
2016-12-23T09:43:52.956Z,1028.89
2016-12-23T09:45:03.225Z,1028.86
2016-12-23T09:46:13.494Z,1028.85
2016-12-23T09:47:23.762Z,1028.86
2016-12-23T09:48:34.085Z,1028.86
2016-12-23T09:49:44.345Z,1028.9
2016-12-23T09:50:54.598Z,1028.91
2016-12-23T09:52:04.554Z,1028.86
2016-12-23T09:53:14.815Z,1028.9
2016-12-23T09:54:25.087Z,1028.94
2016-12-23T09:55:35.359Z,1029
2016-12-23T09:56:45.628Z,1028.97
2016-12-23T09:57:55.890Z,1028.96
2016-12-23T09:59:05.548Z,1028.93
2016-12-23T10:00:15.821Z,1028.92
2016-12-23T10:01:25.793Z,1028.85
2016-12-23T10:02:36.067Z,1028.87
2016-12-23T10:03:46.333Z,1028.86
2016-12-23T10:04:56.642Z,1028.86
2016-12-23T10:06:06.902Z,1028.82
2016-12-23T10:07:17.168Z,1028.83
2016-12-23T10:08:27.123Z,1028.83
2016-12-23T10:09:37.385Z,1028.81
2016-12-23T10:10:47.661Z,1028.85
2016-12-23T10:11:57.914Z,1028.83
2016-12-23T10:13:08.188Z,1028.81
2016-12-23T10:14:18.461Z,1028.79
2016-12-23T10:15:28.103Z,1028.79
2016-12-23T10:16:38.382Z,1028.78
2016-12-23T10:17:48.647Z,1028.74
2016-12-23T10:18:58.919Z,1028.72
2016-12-23T10:20:09.190Z,1028.8
2016-12-23T10:21:19.149Z,1028.83
2016-12-23T10:22:29.441Z,1028.84
2016-12-23T10:23:39.392Z,1028.9
2016-12-23T10:24:49.642Z,1028.88
2016-12-23T10:25:59.616Z,1028.89
2016-12-23T10:27:09.908Z,1028.82
2016-12-23T10:28:20.176Z,1028.87
2016-12-23T10:29:30.455Z,1028.85
2016-12-23T10:30:40.774Z,1028.9
2016-12-23T10:31:50.727Z,1028.85
2016-12-23T10:33:00.981Z,1028.82
2016-12-23T10:34:11.268Z,1028.81
2016-12-23T10:35:21.540Z,1028.82
2016-12-23T10:36:31.832Z,1028.82
2016-12-23T10:37:42.110Z,1028.86
2016-12-23T10:38:52.370Z,1028.89
2016-12-23T10:40:02.654Z,1028.92
2016-12-23T10:41:12.919Z,1028.84
2016-12-23T10:42:23.214Z,1028.79
2016-12-23T10:43:33.512Z,1028.82
2016-12-23T10:44:43.793Z,1028.78
2016-12-23T10:45:53.745Z,1028.77
2016-12-23T10:47:03.694Z,1028.74
2016-12-23T10:48:13.965Z,1028.73
2016-12-23T10:49:24.248Z,1028.71
2016-12-23T10:50:34.753Z,1028.71
2016-12-23T10:51:45.048Z,1028.67
2016-12-23T10:52:55.326Z,1028.67
2016-12-23T10:54:05.615Z,1028.64
2016-12-23T10:55:15.895Z,1028.6
2016-12-23T10:56:26.197Z,1028.67
2016-12-23T10:57:36.451Z,1028.64
2016-12-23T10:58:46.712Z,1028.64
2016-12-23T10:59:56.673Z,1028.58
2016-12-23T11:01:06.939Z,1028.63
2016-12-23T11:02:17.208Z,1028.63
2016-12-23T11:03:27.480Z,1028.67
2016-12-23T11:04:37.429Z,1028.71
2016-12-23T11:05:47.391Z,1028.62
2016-12-23T11:06:57.663Z,1028.61
2016-12-23T11:08:07.937Z,1028.58
2016-12-23T11:09:18.191Z,1028.56
2016-12-23T11:10:28.482Z,1028.57
2016-12-23T11:11:38.440Z,1028.56
2016-12-23T11:12:48.703Z,1028.53
2016-12-23T11:13:58.961Z,1028.48
2016-12-23T11:15:09.240Z,1028.46
2016-12-23T11:16:19.199Z,1028.53
2016-12-23T11:17:29.475Z,1028.55
2016-12-23T11:18:39.765Z,1028.46
2016-12-23T11:19:50.034Z,1028.43
2016-12-23T11:21:00.316Z,1028.49
2016-12-23T11:22:10.617Z,1028.5
2016-12-23T11:23:20.569Z,1028.46
2016-12-23T11:24:30.837Z,1028.43
2016-12-23T11:25:41.107Z,1028.38
2016-12-23T11:26:51.376Z,1028.38
2016-12-23T11:28:01.641Z,1028.35
2016-12-23T11:29:11.920Z,1028.36
2016-12-23T11:30:22.181Z,1028.34
2016-12-23T11:31:32.448Z,1028.35
2016-12-23T11:32:42.399Z,1028.34
2016-12-23T11:33:52.681Z,1028.37
2016-12-23T11:35:02.975Z,1028.31
2016-12-23T11:36:13.247Z,1028.34
2016-12-23T11:37:23.196Z,1028.34
2016-12-23T11:38:33.539Z,1028.35
2016-12-23T11:39:43.798Z,1028.38
2016-12-23T11:40:54.076Z,1028.38
2016-12-23T11:42:04.362Z,1028.39
2016-12-23T11:43:14.637Z,1028.37
2016-12-23T11:44:24.594Z,1028.32
2016-12-23T11:45:34.848Z,1028.27
2016-12-23T11:46:45.119Z,1028.32
2016-12-23T11:47:55.373Z,1028.32
2016-12-23T11:49:05.651Z,1028.3
2016-12-23T11:50:15.923Z,1028.28
2016-12-23T11:51:26.196Z,1028.33
2016-12-23T11:52:36.484Z,1028.29
2016-12-23T11:53:46.785Z,1028.28
2016-12-23T11:54:57.049Z,1028.22
2016-12-23T11:56:07.373Z,1028.23
2016-12-23T11:57:17.645Z,1028.27
2016-12-23T11:58:27.911Z,1028.23
2016-12-23T11:59:38.179Z,1028.22
2016-12-23T12:00:48.455Z,1028.24
2016-12-23T12:01:58.726Z,1028.25
2016-12-23T12:03:08.704Z,1028.24
2016-12-23T12:04:18.983Z,1028.24
2016-12-23T12:05:29.289Z,1028.23
2016-12-23T12:06:39.558Z,1028.29
2016-12-23T12:07:49.821Z,1028.26
2016-12-23T12:09:00.093Z,1028.21
2016-12-23T12:10:10.358Z,1028.23
2016-12-23T12:11:20.644Z,1028.18
2016-12-23T12:12:30.928Z,1028.18
2016-12-23T12:13:40.889Z,1028.13
2016-12-23T12:14:51.150Z,1028.11
2016-12-23T12:16:01.117Z,1028.15
2016-12-23T12:17:11.079Z,1028.14
2016-12-23T12:18:21.050Z,1028.11
2016-12-23T12:19:39.110Z,1028.12
2016-12-23T12:20:49.065Z,1028.13
2016-12-23T12:21:59.373Z,1028.15
2016-12-23T12:23:09.734Z,1028.12
2016-12-23T12:24:19.993Z,1028.14
2016-12-23T12:25:30.266Z,1028.12
2016-12-23T12:26:40.228Z,1028.13
2016-12-23T12:27:50.512Z,1028.1
2016-12-23T12:29:00.784Z,1028.08
2016-12-23T12:30:11.050Z,1028.13
2016-12-23T12:31:21.309Z,1028.13
2016-12-23T12:32:31.581Z,1028.16
2016-12-23T12:33:41.873Z,1028.18
2016-12-23T12:34:52.176Z,1028.19
2016-12-23T12:36:02.448Z,1028.15
2016-12-23T12:37:12.730Z,1028.18
2016-12-23T12:38:23.018Z,1028.16
2016-12-23T12:39:33.312Z,1028.2
2016-12-23T12:40:43.273Z,1028.19
2016-12-23T12:41:53.536Z,1028.19
2016-12-23T12:43:03.498Z,1028.16
2016-12-23T12:44:13.760Z,1028.12
2016-12-23T12:45:24.058Z,1028.13
2016-12-23T12:46:34.326Z,1028.11
2016-12-23T12:47:44.601Z,1028.11
2016-12-23T12:48:54.858Z,1028.17
2016-12-23T12:50:04.826Z,1028.17
2016-12-23T12:51:14.794Z,1028.19
2016-12-23T12:52:25.088Z,1028.16
2016-12-23T12:53:35.373Z,1028.13
2016-12-23T12:54:45.671Z,1028.11
2016-12-23T12:55:55.940Z,1028.08
2016-12-23T12:57:06.518Z,1028.06
2016-12-23T12:58:16.794Z,1028.05
2016-12-23T12:59:27.082Z,1028.06
2016-12-23T13:00:37.338Z,1028.05
2016-12-23T13:01:47.607Z,1028.08
2016-12-23T13:02:57.879Z,1028.12
2016-12-23T13:04:08.192Z,1028.09
2016-12-23T13:05:18.471Z,1028.07
2016-12-23T13:06:28.429Z,1028.01
2016-12-23T13:07:38.682Z,1027.96
2016-12-23T13:08:48.947Z,1027.99
2016-12-23T13:09:59.207Z,1027.99
2016-12-23T13:11:09.189Z,1027.92
2016-12-23T13:12:19.478Z,1027.98
2016-12-23T13:13:29.469Z,1027.91
2016-12-23T13:14:39.751Z,1027.96
2016-12-23T13:15:50.041Z,1027.92
2016-12-23T13:17:00.301Z,1027.91
2016-12-23T13:18:10.579Z,1027.88
2016-12-23T13:19:20.874Z,1027.86
2016-12-23T13:20:31.159Z,1027.9
2016-12-23T13:21:41.430Z,1027.93
2016-12-23T13:22:51.392Z,1027.89
2016-12-23T13:24:01.661Z,1027.93
2016-12-23T13:25:11.952Z,1027.98
2016-12-23T13:26:22.233Z,1027.96
2016-12-23T13:27:32.506Z,1027.93
2016-12-23T13:28:42.480Z,1027.95
2016-12-23T13:29:52.752Z,1027.93
2016-12-23T13:31:03.031Z,1027.93
2016-12-23T13:32:13.312Z,1027.96
2016-12-23T13:33:23.592Z,1027.95
2016-12-23T13:34:33.860Z,1027.91
2016-12-23T13:35:44.141Z,1027.92
2016-12-23T13:36:54.097Z,1027.91
2016-12-23T13:38:04.384Z,1027.9
2016-12-23T13:39:14.381Z,1027.95
2016-12-23T13:40:24.646Z,1028.01
2016-12-23T13:41:34.915Z,1027.97
2016-12-23T13:42:45.193Z,1027.98
2016-12-23T13:43:55.456Z,1027.95
2016-12-23T13:45:05.747Z,1027.96
2016-12-23T13:46:16.022Z,1027.91
2016-12-23T13:47:26.864Z,1027.86
2016-12-23T13:48:37.165Z,1027.76
2016-12-23T13:49:47.451Z,1027.77
2016-12-23T13:50:57.741Z,1027.75
2016-12-23T13:52:08.022Z,1027.7
2016-12-23T13:53:18.298Z,1027.63
2016-12-23T13:54:28.563Z,1027.63
2016-12-23T13:55:38.825Z,1027.57
2016-12-23T13:56:49.107Z,1027.51
2016-12-23T13:57:59.385Z,1027.53
2016-12-23T13:59:09.682Z,1027.55
2016-12-23T14:00:19.968Z,1027.52
2016-12-23T14:01:30.253Z,1027.5
2016-12-23T14:02:40.548Z,1027.5
2016-12-23T14:03:50.541Z,1027.46
2016-12-23T14:05:00.812Z,1027.42
2016-12-23T14:06:10.774Z,1027.44
2016-12-23T14:07:21.069Z,1027.41
2016-12-23T14:08:31.340Z,1027.37
2016-12-23T14:09:41.603Z,1027.36
2016-12-23T14:10:51.879Z,1027.29
2016-12-23T14:12:01.837Z,1027.33